Aérodrome :
LOGIN :

S'inscrire | Disclaimer

   EN    FR    IT 

 










Légende :    VFR   VFR Marginal   IFR   IFR Intensif   IFR Très Intensif
Visi : 
Plafond : 
>= 8 km
>= 3000ft
5 à 8 km
1000 à 3000 ft
1500m à 5 km
500 à 1000 ft
800 à 1500m
200 à 500 ft
< 800m
< 200 ft
Symboles :   Orages  Brouillard  Fortes neiges  Fortes précipitations  Vent > 20 kt
SIGMETs :   Divers  Orages  Givrage  Turbulence  Onde Orograph.  Cendres Volcan.






- Altitude de l'aérodrome : 370 ft


EBBE - Beauvechain AB

DERNIER METAR :
  • 172155Z AUTO 23017KT 9999 FEW017/// SCT020/// BKN024/// 07/04 Q1018 WHT

METARs EXPIRÉS :
  • 172133Z AUTO 23016KT 9999 FEW015/// SCT020/// BKN025/// 07/04 Q1018 WHT
  • 172055Z AUTO 24016KT 9999 FEW024/// BKN028/// BKN065/// 07/04 Q1017 BLU
  • 172025Z AUTO 23017KT 9999 FEW019/// SCT050/// BKN065/// 07/04 Q1017 BLU BLU TEMPO GRN
  • 171955Z 23017KT 9999 FEW012 SCT020TCU BKN030 07/04 Q1016 WHT BLU TEMPO GRN
  • 171925Z 24020G32KT 9999 -SHRA FEW012 SCT020TCU BKN030 07/04 Q1016 WHT BLU TEMPO GRN

TAF TAF EBBE
Valide du 17 à 19h jusqu'au 18 à 07h UTC


171541Z 1719/1807 25015G25KT 9999 SCT020 BKN025
TEMPO 1719/1801 25020G30KT 4000 -SHRA SCT015 BKN020
PROB30
TEMPO 1719/1801 25023G35KT 3000 SHRA FEW010 SCT012TCU BKN015
BECMG 1801/1803 23012KT FEW023
PROB30
TEMPO 1801/1807 6000 -SHRA SCT020 SCT030



MET'MAP, la Météo Aéronautique d'un coup d'oeil ! - Copyright ORBIFLY Décembre 2007 - Disclaimer

ORBIFLY MET'MAP TEAM :

Programmation & Développement : Alexandra Zaïnal
Sur une idée originale de : Baudouin d'Aumeries
Assistance à la programmation : Marc-Olivier Méhu
Soutien technique & logistique : Manuel Goepfert

Contact : metmap@orbifly.com




SOURCES & CREDITS :

   NOAA